Time;durP1;ratioP1;P1;durP2;ratioP2;P2;SDS_P1;SDS_P2;PMS_P1;PMS_P2;Temp;Humidity;BMP_temperature;BMP_pressure;BME280_temperature;BME280_humidity;BME280_pressure;Samples;Min_cycle;Max_cycle;Signal;HPM_P1;HPM_P2
2022/06/29 00:00:26;;;;;;;6.47;4.67;;;;;;;19.66;80.23;98299.17;1813683;79;21016;-60
2022/06/29 00:02:52;;;;;;;6.08;4.60;;;;;;;19.60;80.31;98296.45;1813543;79;21560;-59
2022/06/29 00:05:21;;;;;;;5.62;4.80;;;;;;;19.53;80.45;98298.94;1813916;79;21057;-60
2022/06/29 00:07:48;;;;;;;5.08;4.40;;;;;;;19.47;80.72;98292.17;1814004;78;20863;-60
2022/06/29 00:10:16;;;;;;;7.28;4.92;;;;;;;19.42;80.91;98290.48;1814171;79;20870;-59
2022/06/29 00:12:43;;;;;;;5.17;4.67;;;;;;;19.39;81.06;98291.70;1813999;79;21064;-60
2022/06/29 00:15:11;;;;;;;4.97;4.40;;;;;;;19.37;81.15;98291.26;1814096;79;20897;-59
2022/06/29 00:17:38;;;;;;;7.28;4.70;;;;;;;19.34;81.16;98286.47;1814081;79;21229;-60
2022/06/29 00:20:06;;;;;;;4.37;3.95;;;;;;;19.29;81.23;98288.08;1813975;79;20972;-60
2022/06/29 00:22:33;;;;;;;6.90;4.58;;;;;;;19.26;81.31;98288.75;1814173;79;20996;-60
2022/06/29 00:25:07;;;;;;;11.95;4.90;;;;;;;19.21;81.43;98293.04;1814034;79;21492;-59
2022/06/29 00:27:34;;;;;;;6.00;4.70;;;;;;;19.14;81.74;98293.61;1814069;79;20926;-59
2022/06/29 00:30:00;;;;;;;6.22;4.70;;;;;;;19.13;82.03;98290.66;1814168;79;21259;-60
2022/06/29 00:32:27;;;;;;;7.28;4.65;;;;;;;19.09;82.15;98291.91;1814047;79;20924;-59
2022/06/29 00:34:53;;;;;;;6.65;4.42;;;;;;;19.03;82.37;98289.17;1814042;79;20988;-60
2022/06/29 00:37:19;;;;;;;8.75;4.83;;;;;;;18.98;82.55;98292.11;1814120;79;20993;-59
2022/06/29 00:39:46;;;;;;;5.92;4.75;;;;;;;18.94;82.88;98284.97;1814166;79;21471;-59
2022/06/29 00:42:12;;;;;;;4.90;4.40;;;;;;;18.94;83.12;98290.41;1814042;79;21099;-60
2022/06/29 00:44:40;;;;;;;5.30;4.58;;;;;;;18.96;83.27;98286.22;1813989;79;20913;-60
2022/06/29 00:47:07;;;;;;;6.72;4.80;;;;;;;18.97;83.27;98285.11;1814155;79;20866;-60
2022/06/29 00:49:34;;;;;;;5.20;4.15;;;;;;;18.98;83.34;98280.48;1814116;79;20981;-60
2022/06/29 00:52:12;;;;;;;7.87;4.65;;;;;;;18.97;83.48;98267.47;1814350;79;21388;-60
2022/06/29 00:54:47;;;;;;;5.60;4.58;;;;;;;19.00;83.55;98264.09;1814275;79;21198;-59
2022/06/29 00:57:17;;;;;;;8.28;4.33;;;;;;;19.04;83.65;98262.83;1814381;79;20976;-60
2022/06/29 00:59:53;;;;;;;5.20;4.70;;;;;;;19.00;83.59;98262.73;1814047;79;20921;-58
2022/06/29 01:02:22;;;;;;;6.25;4.67;;;;;;;18.97;83.65;98263.39;1814042;79;20921;-59
2022/06/29 01:04:50;;;;;;;4.80;4.25;;;;;;;18.96;83.68;98264.51;1814194;79;21416;-59
2022/06/29 01:07:20;;;;;;;5.47;4.90;;;;;;;18.95;83.56;98268.38;1810713;79;21238;-59
2022/06/29 01:09:46;;;;;;;5.08;4.37;;;;;;;18.91;83.46;98274.23;1792210;80;21466;-59
2022/06/29 01:12:13;;;;;;;5.60;4.75;;;;;;;18.84;83.43;98279.42;1792411;80;20994;-59
2022/06/29 01:14:44;;;;;;;6.90;4.62;;;;;;;18.82;83.40;98284.95;1792240;80;20923;-58
2022/06/29 01:17:13;;;;;;;7.95;4.58;;;;;;;18.81;83.56;98282.83;1792368;80;21548;-58
2022/06/29 01:19:41;;;;;;;4.62;4.22;;;;;;;18.78;83.73;98282.13;1792439;80;22071;-59
2022/06/29 01:22:19;;;;;;;6.35;4.70;;;;;;;18.78;83.86;98287.56;1792164;80;20903;-58
2022/06/29 01:24:47;;;;;;;5.30;4.65;;;;;;;18.81;84.06;98283.38;1792239;80;20972;-59
2022/06/29 01:27:15;;;;;;;5.40;4.90;;;;;;;18.79;83.98;98282.38;1792182;80;20919;-59
2022/06/29 01:29:42;;;;;;;5.78;5.08;;;;;;;18.70;84.03;98280.30;1792373;80;20903;-59
2022/06/29 01:32:09;;;;;;;7.75;4.90;;;;;;;18.68;84.25;98276.33;1792317;80;21233;-59
2022/06/29 01:34:36;;;;;;;7.40;4.78;;;;;;;18.66;84.33;98277.23;1792371;80;20970;-59
2022/06/29 01:37:03;;;;;;;6.87;4.62;;;;;;;18.65;84.45;98276.47;1792229;80;20919;-59
2022/06/29 01:39:31;;;;;;;6.47;4.60;;;;;;;18.65;84.49;98275.11;1792173;80;20844;-59
2022/06/29 01:41:57;;;;;;;5.95;4.65;;;;;;;18.64;84.46;98274.87;1792236;80;20876;-59
2022/06/29 01:44:24;;;;;;;5.50;4.85;;;;;;;18.62;84.47;98275.77;1792326;80;21915;-59
2022/06/29 01:46:50;;;;;;;6.75;4.50;;;;;;;18.58;84.58;98272.16;1792170;80;20908;-59
2022/06/29 01:49:16;;;;;;;7.22;4.58;;;;;;;18.57;84.62;98278.69;1792631;80;20958;-59
2022/06/29 01:51:43;;;;;;;6.47;4.75;;;;;;;18.58;84.67;98272.16;1792162;80;20959;-60
2022/06/29 01:54:09;;;;;;;6.33;4.47;;;;;;;18.56;84.64;98268.95;1792262;80;20844;-59
2022/06/29 01:56:36;;;;;;;4.92;4.42;;;;;;;18.55;84.50;98275.53;1792431;80;21839;-59
2022/06/29 01:59:03;;;;;;;5.90;4.67;;;;;;;18.50;84.37;98272.22;1792251;80;21461;-60
2022/06/29 02:01:30;;;;;;;6.95;4.60;;;;;;;18.43;84.59;98273.54;1792219;80;20914;-60
2022/06/29 02:03:56;;;;;;;5.80;4.45;;;;;;;18.44;84.82;98272.98;1792213;80;20954;-60
2022/06/29 02:06:23;;;;;;;6.15;4.70;;;;;;;18.42;85.12;98269.78;1792342;80;20963;-59
2022/06/29 02:08:50;;;;;;;5.05;4.55;;;;;;;18.41;85.44;98267.66;1806063;78;21113;-59
2022/06/29 02:11:16;;;;;;;5.90;4.58;;;;;;;18.43;85.78;98270.03;1813463;79;20963;-60
2022/06/29 02:13:43;;;;;;;6.05;5.00;;;;;;;18.48;85.94;98269.86;1813508;79;20935;-60
2022/06/29 02:16:11;;;;;;;5.20;4.67;;;;;;;18.51;85.86;98270.55;1813500;79;21367;-61
2022/06/29 02:18:37;;;;;;;5.50;4.22;;;;;;;18.54;85.79;98260.36;1813431;79;20919;-59
2022/06/29 02:21:04;;;;;;;5.75;4.85;;;;;;;18.57;85.76;98262.42;1813418;79;21105;-59
2022/06/29 02:23:30;;;;;;;5.75;4.60;;;;;;;18.61;85.73;98259.25;1813439;79;20880;-60
2022/06/29 02:25:57;;;;;;;5.67;4.78;;;;;;;18.68;85.60;98251.91;1813433;79;20876;-60
2022/06/29 02:28:23;;;;;;;7.03;4.75;;;;;;;18.73;85.40;98255.21;1813391;79;20963;-59
2022/06/29 02:36:19;;;;;;;6.72;4.50;;;;;;;18.78;84.94;98241.43;1813801;79;20872;-60
2022/06/29 02:38:46;;;;;;;7.78;4.28;;;;;;;18.73;84.96;98248.42;1813522;79;21031;-59
2022/06/29 02:41:12;;;;;;;5.00;4.50;;;;;;;18.74;84.92;98247.87;1813713;79;21409;-60
2022/06/29 02:43:39;;;;;;;5.47;4.55;;;;;;;18.74;84.69;98247.31;1813538;79;20995;-59
2022/06/29 02:46:05;;;;;;;6.35;4.58;;;;;;;18.73;84.42;98247.07;1813509;79;21118;-59
2022/06/29 02:48:33;;;;;;;6.87;4.20;;;;;;;18.64;84.22;98247.73;1813531;79;21490;-60
2022/06/29 02:51:00;;;;;;;4.67;4.10;;;;;;;18.60;84.26;98252.81;1813516;79;20913;-60
2022/06/29 02:53:26;;;;;;;5.87;4.45;;;;;;;18.59;84.50;98256.09;1813448;79;20991;-59
2022/06/29 02:55:54;;;;;;;4.80;4.40;;;;;;;18.63;84.63;98257.58;1813509;79;21486;-60
2022/06/29 02:58:20;;;;;;;4.92;4.00;;;;;;;18.61;84.67;98252.47;1813402;79;21278;-60
2022/06/29 03:00:47;;;;;;;4.75;4.22;;;;;;;18.63;84.71;98244.02;1813350;79;20916;-60
2022/06/29 03:03:13;;;;;;;7.28;4.80;;;;;;;18.64;84.91;98242.88;1813387;79;20951;-60
2022/06/29 03:05:40;;;;;;;5.12;4.05;;;;;;;18.67;84.98;98244.92;1813512;79;20948;-60
2022/06/29 03:08:07;;;;;;;5.67;4.40;;;;;;;18.70;85.23;98246.38;1813766;79;20881;-59
2022/06/29 03:10:33;;;;;;;6.20;4.35;;;;;;;18.75;85.21;98244.02;1814131;79;21108;-59
2022/06/29 03:13:00;;;;;;;5.40;4.37;;;;;;;18.75;85.13;98246.16;1777332;80;20901;-59
2022/06/29 03:15:27;;;;;;;4.92;4.40;;;;;;;18.78;85.24;98249.57;1777596;80;21001;-58
2022/06/29 03:17:54;;;;;;;7.50;4.90;;;;;;;18.80;85.23;98246.52;1777624;80;20920;-59
2022/06/29 03:20:22;;;;;;;5.50;4.10;;;;;;;18.79;85.28;98238.16;1777618;80;20936;-59
2022/06/29 03:22:49;;;;;;;7.70;4.17;;;;;;;18.82;85.35;98241.53;1777744;80;21840;-59
2022/06/29 03:25:16;;;;;;;5.92;4.55;;;;;;;18.84;85.42;98234.64;1777831;80;21474;-59
2022/06/29 03:27:43;;;;;;;4.72;4.25;;;;;;;18.89;85.49;98233.06;1777567;80;21028;-59
2022/06/29 03:30:11;;;;;;;6.87;4.50;;;;;;;18.94;85.48;98236.92;1777644;80;20948;-59
2022/06/29 03:32:39;;;;;;;8.48;4.35;;;;;;;18.99;85.42;98234.55;1777576;80;20944;-59
2022/06/29 03:35:07;;;;;;;5.15;4.37;;;;;;;19.01;85.32;98235.80;1777679;80;21194;-60
2022/06/29 03:37:34;;;;;;;5.12;4.30;;;;;;;19.06;85.37;98238.28;1777877;80;20941;-60
2022/06/29 03:40:03;;;;;;;7.45;4.28;;;;;;;19.11;85.38;98244.85;1777570;80;20985;-60
2022/06/29 03:42:29;;;;;;;7.78;4.95;;;;;;;19.25;85.50;98242.34;1777552;80;20952;-59
2022/06/29 03:44:56;;;;;;;5.55;4.50;;;;;;;19.41;85.54;98239.19;1777573;80;20921;-59
2022/06/29 03:47:24;;;;;;;4.92;4.42;;;;;;;19.59;84.90;98240.54;1777564;80;21216;-59
2022/06/29 03:49:52;;;;;;;6.67;4.47;;;;;;;19.80;84.42;98238.45;1777578;80;20874;-59
2022/06/29 03:52:18;;;;;;;8.53;4.87;;;;;;;20.01;84.00;98234.98;1777528;80;20940;-59
2022/06/29 03:54:45;;;;;;;6.08;4.70;;;;;;;20.20;82.94;98235.70;1777644;80;21032;-60
2022/06/29 03:57:11;;;;;;;4.87;4.33;;;;;;;20.41;81.79;98228.95;1777574;80;20901;-60
2022/06/29 03:59:38;;;;;;;9.35;4.60;;;;;;;20.66;80.87;98232.86;1777655;80;21224;-60
2022/06/29 04:02:05;;;;;;;7.92;4.47;;;;;;;20.84;80.21;98228.68;1777484;80;21447;-60
2022/06/29 04:04:32;;;;;;;8.63;4.62;;;;;;;20.96;79.91;98227.23;1777560;80;20893;-59
2022/06/29 04:07:00;;;;;;;7.15;4.17;;;;;;;21.02;79.70;98212.20;1777561;80;20956;-59
2022/06/29 04:09:26;;;;;;;9.08;4.40;;;;;;;21.09;79.09;98221.36;1760733;80;20971;-59
2022/06/29 04:11:53;;;;;;;6.30;4.30;;;;;;;21.21;78.87;98216.95;1780550;80;21105;-59
2022/06/29 04:14:26;;;;;;;10.00;4.33;;;;;;;21.34;78.40;98221.92;1780488;80;20884;-58
2022/06/29 04:16:55;;;;;;;5.75;4.05;;;;;;;21.47;77.56;98215.23;1780692;80;20939;-60
2022/06/29 04:19:22;;;;;;;7.58;4.53;;;;;;;21.61;76.29;98210.09;1780666;80;20871;-60
2022/06/29 04:21:49;;;;;;;7.22;4.37;;;;;;;21.77;75.34;98219.00;1780679;80;20935;-61
2022/06/29 04:24:16;;;;;;;8.35;4.42;;;;;;;21.91;74.82;98213.64;1780558;80;21238;-59
2022/06/29 04:26:43;;;;;;;11.48;3.98;;;;;;;22.02;74.38;98214.66;1780491;80;20954;-60
2022/06/29 04:29:11;;;;;;;4.42;3.98;;;;;;;22.12;73.72;98213.50;1780557;80;20930;-61
2022/06/29 04:31:38;;;;;;;9.55;3.95;;;;;;;22.24;73.27;98210.62;1780549;80;20947;-58
2022/06/29 04:34:06;;;;;;;8.68;4.05;;;;;;;22.33;73.05;98204.35;1780641;80;21509;-59
2022/06/29 04:36:33;;;;;;;5.83;4.08;;;;;;;22.44;72.76;98205.93;1748165;82;21068;-60
2022/06/29 04:39:00;;;;;;;8.93;4.17;;;;;;;22.52;72.50;98202.16;1752678;81;21306;-60
2022/06/29 04:41:27;;;;;;;9.13;3.80;;;;;;;22.61;72.48;98205.47;1780649;79;20899;-60
2022/06/29 04:43:53;;;;;;;6.28;4.10;;;;;;;22.69;72.04;98201.72;1780705;80;21469;-60
2022/06/29 04:46:20;;;;;;;4.78;3.95;;;;;;;22.77;71.78;98204.00;1780681;80;20915;-60
2022/06/29 04:48:55;;;;;;;5.37;3.98;;;;;;;22.83;71.27;98197.86;1780649;80;21070;-60
2022/06/29 04:51:21;;;;;;;10.88;4.30;;;;;;;22.91;71.25;98206.39;1780739;80;20923;-60
2022/06/29 04:53:48;;;;;;;4.72;3.98;;;;;;;22.97;70.99;98210.37;1780596;80;20895;-60
2022/06/29 04:56:16;;;;;;;7.08;4.00;;;;;;;23.03;70.71;98208.91;1780613;80;21362;-60
2022/06/29 04:58:43;;;;;;;6.90;3.65;;;;;;;23.10;70.15;98207.66;1780867;80;21437;-60
2022/06/29 05:01:09;;;;;;;4.85;3.75;;;;;;;23.17;69.85;98211.09;1780545;80;21139;-60
2022/06/29 05:03:36;;;;;;;5.97;3.65;;;;;;;23.24;69.72;98214.50;1780571;80;20931;-61
2022/06/29 05:06:03;;;;;;;5.58;3.55;;;;;;;23.29;69.32;98212.83;1780478;80;21002;-59
2022/06/29 05:08:29;;;;;;;5.12;3.90;;;;;;;23.33;69.33;98212.30;1784668;78;20942;-59
2022/06/29 05:10:56;;;;;;;9.65;4.22;;;;;;;23.39;69.30;98205.41;1813886;79;20944;-59
2022/06/29 05:13:22;;;;;;;5.85;4.28;;;;;;;23.45;69.15;98212.11;1813724;79;21249;-60
2022/06/29 05:15:49;;;;;;;5.53;3.62;;;;;;;23.48;69.02;98210.02;1813773;79;20828;-59
2022/06/29 05:18:16;;;;;;;4.45;3.52;;;;;;;23.50;68.89;98209.06;1780027;80;20973;-60
2022/06/29 05:20:43;;;;;;;4.65;3.83;;;;;;;23.53;68.83;98205.00;1813827;79;20879;-60
2022/06/29 05:23:11;;;;;;;4.95;3.90;;;;;;;23.57;68.66;98206.43;1780147;80;20892;-60
2022/06/29 05:25:39;;;;;;;5.78;4.08;;;;;;;23.59;68.63;98199.44;1814019;79;21114;-60
2022/06/29 05:28:06;;;;;;;5.35;3.90;;;;;;;23.65;68.89;98202.61;1779920;80;20892;-61
2022/06/29 05:30:33;;;;;;;5.60;3.47;;;;;;;23.70;68.29;98208.56;1813710;79;20974;-61
2022/06/29 05:33:00;;;;;;;6.60;3.45;;;;;;;23.77;68.12;98207.86;1780078;80;20896;-61
2022/06/29 05:35:29;;;;;;;5.05;3.90;;;;;;;23.94;67.66;98219.61;1813824;79;20911;-60
2022/06/29 05:37:56;;;;;;;4.62;3.92;;;;;;;23.94;67.66;98219.61;1780396;80;21443;-64
2022/06/29 05:40:24;;;;;;;5.40;4.05;;;;;;;24.04;67.48;98218.96;1819379;79;21052;-61
2022/06/29 05:42:51;;;;;;;5.70;4.12;;;;;;;24.12;66.68;98223.38;1808121;79;20948;-62
2022/06/29 05:45:19;;;;;;;5.65;4.05;;;;;;;24.21;66.50;98220.36;1807492;77;20872;-61
2022/06/29 05:47:47;;;;;;;7.60;4.17;;;;;;;24.30;66.34;98220.27;1805904;79;36329;-60
2022/06/29 05:50:13;;;;;;;10.03;4.08;;;;;;;24.40;66.32;98217.45;1805729;79;21978;-61
2022/06/29 05:52:40;;;;;;;6.92;3.83;;;;;;;24.51;66.37;98217.54;1806783;79;20911;-64
2022/06/29 05:55:08;;;;;;;4.12;3.45;;;;;;;24.64;65.91;98202.41;1806271;79;21025;-64
2022/06/29 05:57:35;;;;;;;10.75;4.00;;;;;;;24.64;65.91;98202.41;1806158;79;21001;-63
2022/06/29 06:00:05;;;;;;;4.72;3.90;;;;;;;24.72;65.44;98210.90;1805540;79;20994;-61
2022/06/29 06:02:33;;;;;;;7.83;3.92;;;;;;;24.76;65.29;98207.60;1805263;79;21079;-61
2022/06/29 06:05:00;;;;;;;5.10;3.83;;;;;;;24.82;65.08;98204.77;1803266;79;21025;-61
2022/06/29 06:07:26;;;;;;;5.42;3.95;;;;;;;24.86;64.47;98204.20;1791873;79;20987;-62
2022/06/29 06:09:53;;;;;;;4.55;4.15;;;;;;;24.93;64.69;98208.38;1818008;78;21048;-61
2022/06/29 06:12:20;;;;;;;4.97;4.03;;;;;;;24.99;64.80;98208.25;1794842;79;20898;-61
2022/06/29 06:14:46;;;;;;;10.25;4.47;;;;;;;25.07;64.76;98200.27;1780848;80;21108;-61
2022/06/29 06:17:13;;;;;;;8.03;4.15;;;;;;;25.17;65.04;98196.83;1805099;78;21012;-62
2022/06/29 06:19:40;;;;;;;5.87;4.28;;;;;;;25.30;64.53;98201.40;1806221;79;20882;-60
2022/06/29 06:22:06;;;;;;;12.28;5.15;;;;;;;25.37;62.75;98188.53;1806481;79;20974;-63
2022/06/29 06:24:34;;;;;;;8.05;4.85;;;;;;;25.47;62.26;98184.31;1806557;79;21020;-63
2022/06/29 06:27:00;;;;;;;9.00;5.60;;;;;;;25.53;62.23;98184.93;1806505;79;21175;-64
2022/06/29 06:29:27;;;;;;;6.90;5.50;;;;;;;25.58;63.20;98187.89;1805969;79;21531;-67
2022/06/29 06:31:53;;;;;;;5.80;5.00;;;;;;;25.64;63.43;98188.53;1806033;79;21649;-62
2022/06/29 06:34:20;;;;;;;6.12;5.45;;;;;;;25.71;63.61;98193.27;1811498;78;21364;-62
2022/06/29 06:36:46;;;;;;;6.87;5.10;;;;;;;25.78;64.14;98195.46;1808035;78;20973;-62
2022/06/29 06:39:13;;;;;;;9.45;5.62;;;;;;;25.88;64.82;98187.66;1806515;78;21230;-62
2022/06/29 06:41:39;;;;;;;6.83;5.22;;;;;;;25.97;65.24;98189.45;1806379;79;20867;-61
2022/06/29 06:44:06;;;;;;;7.00;4.90;;;;;;;26.08;65.27;98194.38;1796012;79;21052;-61
2022/06/29 06:46:34;;;;;;;8.43;5.15;;;;;;;26.20;65.25;98185.83;1810162;78;21062;-65
2022/06/29 06:49:01;;;;;;;8.58;5.12;;;;;;;26.29;64.78;98182.13;1813476;78;20903;-61
2022/06/29 06:51:28;;;;;;;8.00;4.95;;;;;;;26.35;64.71;98170.98;1815167;78;21217;-61
2022/06/29 06:53:54;;;;;;;7.28;5.15;;;;;;;26.42;64.65;98172.36;1807311;78;21077;-60
2022/06/29 06:56:21;;;;;;;8.03;4.90;;;;;;;26.48;64.16;98179.03;1806238;78;21055;-60
2022/06/29 06:58:47;;;;;;;8.38;4.53;;;;;;;26.53;63.31;98174.52;1807800;78;21088;-63
2022/06/29 07:01:14;;;;;;;6.10;4.22;;;;;;;26.59;62.64;98172.95;1808854;78;21143;-63
2022/06/29 07:03:41;;;;;;;5.62;4.45;;;;;;;26.66;62.49;98175.73;1805097;78;22473;-63
2022/06/29 07:06:10;;;;;;;5.50;4.40;;;;;;;26.73;62.57;98177.11;1809871;79;20879;-62
2022/06/29 07:08:38;;;;;;;5.37;4.72;;;;;;;26.78;62.53;98173.22;1798612;77;21050;-62
2022/06/29 07:11:06;;;;;;;9.20;4.50;;;;;;;26.83;62.95;98177.71;1772677;80;21058;-62
2022/06/29 07:13:33;;;;;;;5.37;4.03;;;;;;;26.87;62.46;98177.14;1772698;80;20903;-63
2022/06/29 07:16:04;;;;;;;10.60;4.47;;;;;;;26.93;61.99;98179.69;1717521;83;21077;-60
2022/06/29 07:18:31;;;;;;;5.05;4.33;;;;;;;27.00;61.17;98179.68;1819341;78;20918;-66
2022/06/29 07:20:58;;;;;;;7.03;3.90;;;;;;;27.08;60.46;98187.34;1819747;78;20931;-61
2022/06/29 07:23:25;;;;;;;5.45;3.87;;;;;;;27.13;59.05;98188.32;1819922;78;20982;-59
2022/06/29 07:25:52;;;;;;;5.03;3.35;;;;;;;27.17;58.33;98191.05;1820259;78;21417;-62
2022/06/29 07:28:18;;;;;;;8.98;3.67;;;;;;;27.22;57.23;98187.91;1818956;78;22132;-60
2022/06/29 07:30:45;;;;;;;5.80;3.80;;;;;;;27.28;56.53;98186.31;1818618;78;20951;-59
2022/06/29 07:33:12;;;;;;;5.47;3.58;;;;;;;27.35;56.74;98191.80;1818730;78;21106;-60
2022/06/29 07:35:38;;;;;;;5.60;3.40;;;;;;;27.41;56.35;98204.02;1819475;78;21034;-61
2022/06/29 07:38:05;;;;;;;8.70;3.52;;;;;;;27.45;55.87;98191.03;1819716;78;20999;-60
2022/06/29 07:40:33;;;;;;;7.85;3.55;;;;;;;27.50;56.00;98204.39;1819702;78;21114;-63
2022/06/29 07:43:00;;;;;;;7.45;3.90;;;;;;;27.53;56.36;98200.85;1820051;78;20907;-62
2022/06/29 07:45:26;;;;;;;7.10;3.50;;;;;;;27.57;56.05;98201.63;1820364;78;21446;-61
2022/06/29 07:47:53;;;;;;;6.85;3.67;;;;;;;27.64;55.51;98204.35;1820315;78;20971;-62
2022/06/29 07:50:20;;;;;;;7.50;3.67;;;;;;;27.67;55.91;98206.31;1820374;78;20891;-62
2022/06/29 07:52:46;;;;;;;6.20;4.00;;;;;;;27.73;55.45;98207.47;1820032;78;22131;-63
2022/06/29 07:55:13;;;;;;;7.47;4.03;;;;;;;27.81;55.23;98203.52;1820266;78;21005;-63
2022/06/29 07:57:40;;;;;;;4.90;3.67;;;;;;;27.87;55.08;98201.13;1820402;78;20907;-61
2022/06/29 08:00:08;;;;;;;6.10;3.20;;;;;;;27.92;54.22;98202.88;1820214;78;20971;-60
2022/06/29 08:02:40;;;;;;;6.33;3.60;;;;;;;27.98;53.88;98205.41;1820471;78;20880;-62
2022/06/29 08:05:08;;;;;;;7.05;3.25;;;;;;;28.06;54.13;98208.36;1820628;78;21199;-60
2022/06/29 08:07:34;;;;;;;5.78;3.37;;;;;;;28.11;53.79;98206.57;1820173;78;20875;-63
2022/06/29 08:10:03;;;;;;;4.67;3.17;;;;;;;28.18;53.97;98203.78;1840000;75;21036;-63
2022/06/29 08:12:31;;;;;;;6.90;4.15;;;;;;;28.28;53.65;98205.70;1847110;77;21419;-62
2022/06/29 08:14:58;;;;;;;7.80;3.58;;;;;;;28.37;52.59;98203.29;1847948;76;20880;-60
2022/06/29 08:17:25;;;;;;;8.53;4.70;;;;;;;28.47;51.83;98200.28;1861451;76;21083;-58
2022/06/29 08:19:51;;;;;;;11.70;4.72;;;;;;;28.55;49.04;98208.67;1841293;77;20961;-61
2022/06/29 08:22:18;;;;;;;11.20;5.45;;;;;;;28.62;48.89;98207.91;1848772;76;20888;-60
2022/06/29 08:24:44;;;;;;;5.55;3.37;;;;;;;28.69;49.00;98203.72;1847878;77;20948;-60
2022/06/29 08:27:11;;;;;;;5.90;3.45;;;;;;;28.74;49.00;98208.77;1847844;77;20974;-61
2022/06/29 08:29:37;;;;;;;6.45;3.08;;;;;;;28.84;49.60;98199.66;1851641;76;21099;-61
2022/06/29 08:32:07;;;;;;;8.68;4.28;;;;;;;28.89;48.38;98208.88;1853100;76;20927;-61
2022/06/29 08:34:39;;;;;;;7.47;3.77;;;;;;;28.92;48.16;98203.31;1849835;77;20959;-62
2022/06/29 08:37:06;;;;;;;6.10;3.35;;;;;;;28.94;47.85;98201.55;1850151;77;20923;-61
2022/06/29 08:39:33;;;;;;;8.90;5.40;;;;;;;28.95;47.93;98198.96;1850774;77;20887;-64
2022/06/29 08:42:04;;;;;;;6.95;3.77;;;;;;;29.00;48.46;98202.08;1846021;77;20945;-63
2022/06/29 08:44:36;;;;;;;3.98;3.08;;;;;;;29.07;48.27;98202.02;1850478;77;20856;-63
2022/06/29 08:47:05;;;;;;;5.70;3.40;;;;;;;29.19;47.63;98199.97;1847171;77;20908;-63
2022/06/29 08:49:33;;;;;;;7.97;3.70;;;;;;;29.26;47.39;98200.70;1843524;77;21429;-63
2022/06/29 08:51:59;;;;;;;5.45;3.30;;;;;;;29.37;46.76;98204.75;1845130;77;20955;-61
2022/06/29 08:54:26;;;;;;;3.87;2.80;;;;;;;29.48;47.03;98203.45;1848246;77;21227;-61
2022/06/29 08:56:53;;;;;;;5.03;2.90;;;;;;;29.61;46.82;98202.31;1841735;77;20959;-61
2022/06/29 08:59:23;;;;;;;6.53;3.12;;;;;;;29.70;46.33;98201.25;1846368;77;20994;-64
2022/06/29 09:01:50;;;;;;;5.53;3.05;;;;;;;29.76;45.96;98197.65;1841327;77;20972;-62
2022/06/29 09:04:18;;;;;;;4.45;2.80;;;;;;;29.74;45.46;98195.08;1819311;77;20972;-61
2022/06/29 09:06:47;;;;;;;6.92;3.25;;;;;;;29.65;44.59;98199.69;1846290;77;21062;-62
2022/06/29 09:09:14;;;;;;;9.40;3.50;;;;;;;29.64;45.11;98195.38;1784388;77;20936;-62
2022/06/29 09:11:43;;;;;;;7.65;4.55;;;;;;;29.71;43.72;98202.20;1844536;75;21408;-61
2022/06/29 09:14:19;;;;;;;6.30;4.37;;;;;;;29.76;43.99;98202.37;1846982;77;21015;-60
2022/06/29 09:17:04;;;;;;;6.62;3.52;;;;;;;29.73;43.80;98205.33;1834830;77;20985;-61
2022/06/29 09:19:39;;;;;;;7.00;3.22;;;;;;;29.76;45.10;98198.23;1847530;77;21119;-64
2022/06/29 09:22:06;;;;;;;7.03;2.98;;;;;;;29.92;44.74;98197.05;1873960;76;20993;-63
2022/06/29 09:24:33;;;;;;;5.28;2.90;;;;;;;30.10;43.85;98195.47;1847026;77;20885;-60
2022/06/29 09:27:04;;;;;;;4.58;2.70;;;;;;;30.27;42.37;98194.43;1843378;77;20858;-63
2022/06/29 09:29:35;;;;;;;4.30;3.10;;;;;;;30.41;43.40;98188.73;1848924;77;20904;-62
2022/06/29 09:32:13;;;;;;;4.62;2.70;;;;;;;30.58;41.97;98189.09;1847555;76;21668;-62
2022/06/29 09:34:49;;;;;;;7.87;2.95;;;;;;;30.69;42.29;98191.08;1865003;76;20856;-60
2022/06/29 09:37:21;;;;;;;8.00;2.90;;;;;;;30.85;41.93;98191.25;1858438;76;20941;-62
2022/06/29 09:39:52;;;;;;;6.20;2.60;;;;;;;31.00;40.99;98185.67;1871516;76;20868;-61
2022/06/29 09:42:26;;;;;;;5.83;2.83;;;;;;;31.07;40.42;98186.94;1853256;76;20923;-60
2022/06/29 09:44:53;;;;;;;4.58;2.83;;;;;;;31.04;40.51;98184.25;1851177;76;21218;-58
2022/06/29 09:47:21;;;;;;;3.77;2.67;;;;;;;30.90;40.70;98185.87;1849890;77;20999;-61
2022/06/29 09:50:02;;;;;;;4.90;2.75;;;;;;;30.71;41.48;98187.33;1850884;77;20924;-62
2022/06/29 09:52:31;;;;;;;4.10;2.58;;;;;;;30.55;41.50;98192.67;1850578;77;20970;-62
2022/06/29 09:54:59;;;;;;;4.03;2.98;;;;;;;30.52;41.90;98188.00;1850755;77;20912;-64
2022/06/29 09:57:31;;;;;;;4.08;2.80;;;;;;;30.64;41.92;98179.14;1850418;77;21106;-62
2022/06/29 10:02:53;;;;;;;4.05;1.80;;;;;;;31.00;41.71;98175.20;1850823;77;20945;-63
2022/06/29 10:05:22;;;;;;;3.40;2.12;;;;;;;31.14;37.26;98171.44;1847211;77;20882;-60
2022/06/29 10:07:51;;;;;;;7.87;1.92;;;;;;;31.23;37.72;98166.92;1840895;77;20918;-64
2022/06/29 10:10:21;;;;;;;3.92;1.80;;;;;;;31.26;36.75;98172.98;1846308;76;21605;-59
2022/06/29 10:16:10;;;;;;;2.80;1.80;;;;;;;31.10;37.07;98166.74;1843996;77;20968;-64
2022/06/29 10:19:08;;;;;;;7.60;2.08;;;;;;;31.22;36.04;98167.33;1854088;76;20963;-59
2022/06/29 10:21:35;;;;;;;3.62;2.17;;;;;;;31.32;36.30;98167.75;1835018;77;21027;-61
2022/06/29 10:24:02;;;;;;;3.80;1.92;;;;;;;31.46;35.46;98165.53;1831947;77;21108;-62
2022/06/29 10:26:35;;;;;;;2.40;1.70;;;;;;;31.53;34.70;98167.38;1854271;77;21364;-60
2022/06/29 10:29:19;;;;;;;3.02;1.77;;;;;;;31.47;33.83;98168.46;1853735;77;20917;-64
2022/06/29 10:32:01;;;;;;;2.55;1.62;;;;;;;31.27;33.89;98161.31;1839816;77;21012;-62
2022/06/29 10:34:41;;;;;;;3.75;1.70;;;;;;;31.18;34.79;98166.62;1828180;77;20864;-60
2022/06/29 10:37:14;;;;;;;8.25;2.15;;;;;;;31.03;35.47;98161.33;1836421;76;21130;-59
2022/06/29 10:39:53;;;;;;;5.33;2.00;;;;;;;30.87;35.48;98165.34;1825109;76;21081;-60
2022/06/29 10:45:36;;;;;;;7.95;1.95;;;;;;;30.58;36.45;98168.95;1821554;78;20988;-61
2022/06/29 10:48:13;;;;;;;4.22;1.90;;;;;;;30.61;36.06;98164.77;1820739;78;20880;-63
2022/06/29 10:50:56;;;;;;;3.17;1.80;;;;;;;30.76;36.43;98155.03;1796611;78;21720;-57
2022/06/29 10:53:27;;;;;;;2.55;1.98;;;;;;;30.95;35.23;98165.41;1814690;78;21037;-60
2022/06/29 10:55:55;;;;;;;2.95;1.60;;;;;;;31.06;35.39;98153.58;1807896;78;21019;-65
2022/06/29 10:58:22;;;;;;;2.85;1.90;;;;;;;31.15;35.47;98148.09;1822119;78;20931;-60
2022/06/29 11:00:53;;;;;;;2.92;2.20;;;;;;;31.26;35.16;98140.37;1797502;78;21398;-61
2022/06/29 11:03:26;;;;;;;2.62;1.80;;;;;;;31.37;35.10;98136.82;1808021;79;21252;-61
2022/06/29 11:16:59;;;;;;;2.90;1.95;;;;;;;31.68;33.20;98125.73;1796471;78;21181;-62
2022/06/29 11:19:38;;;;;;;3.62;2.00;;;;;;;31.61;34.94;98117.57;1783914;78;21097;-64
2022/06/29 11:22:15;;;;;;;2.58;1.80;;;;;;;31.65;35.12;98118.30;1840081;77;21031;-64
2022/06/29 11:24:57;;;;;;;3.08;1.80;;;;;;;31.74;34.37;98111.58;1851755;77;20915;-62
2022/06/29 11:27:38;;;;;;;4.17;1.87;;;;;;;31.87;34.29;98108.33;1842833;76;20836;-60
2022/06/29 11:30:08;;;;;;;4.00;1.82;;;;;;;32.01;34.72;98108.05;1798157;79;21120;-64
2022/06/29 11:32:43;;;;;;;8.23;2.00;;;;;;;32.19;33.86;98105.67;1787582;77;20974;-59
2022/06/29 11:35:15;;;;;;;3.98;1.82;;;;;;;32.14;34.21;98110.34;1804546;78;21365;-61
2022/06/29 11:38:02;;;;;;;2.25;1.60;;;;;;;32.00;33.84;98101.56;1811565;78;21012;-60
2022/06/29 11:40:36;;;;;;;7.45;2.00;;;;;;;31.85;33.72;98106.59;1796544;78;20992;-62
2022/06/29 11:43:14;;;;;;;;;;;;;;;31.96;34.59;98098.85;1731772;82;21113;-62
2022/06/29 11:45:51;;;;;;;5.67;2.08;;;;;;;32.25;35.20;98108.09;1774563;80;20394;-59
2022/06/29 11:48:23;;;;;;;4.10;1.92;;;;;;;32.65;34.65;98109.35;1767860;78;20911;-61
2022/06/29 11:50:54;;;;;;;3.30;1.90;;;;;;;32.94;32.54;98099.11;1759483;78;21121;-60
2022/06/29 11:53:43;;;;;;;9.58;2.40;;;;;;;33.08;33.21;98098.77;1816465;78;20939;-61
2022/06/29 11:56:18;;;;;;;4.95;2.12;;;;;;;33.25;33.14;98096.13;1822111;78;21096;-61
2022/06/29 11:58:49;;;;;;;5.65;2.08;;;;;;;33.49;32.41;98091.86;1822130;78;21031;-60
2022/06/29 12:01:18;;;;;;;6.92;2.60;;;;;;;33.67;32.29;98095.56;1822379;78;20938;-60
2022/06/29 12:04:00;;;;;;;9.00;2.60;;;;;;;33.84;32.56;98087.33;1821772;78;20931;-61
2022/06/29 12:06:37;;;;;;;3.27;1.92;;;;;;;34.04;31.68;98080.19;1795642;78;21031;-60